createdAt,value
2017-12-06T00:04:19.796Z,73.30
2017-12-06T00:12:01.898Z,73.20
2017-12-06T00:14:34.608Z,73.20
2017-12-06T00:17:01.849Z,73.20
2017-12-06T00:19:28.740Z,73.30
2017-12-06T00:21:56.287Z,73.20
2017-12-06T00:24:23.627Z,73.20
2017-12-06T00:26:55.812Z,73.10
2017-12-06T00:32:07.189Z,73.00
2017-12-06T00:34:34.533Z,73.10
2017-12-06T00:37:13.176Z,73.10
2017-12-06T00:39:40.487Z,73.10
2017-12-06T00:42:13.688Z,73.10
2017-12-06T00:44:40.963Z,73.00
2017-12-06T00:52:37.206Z,73.00
2017-12-06T00:55:04.543Z,72.90
2017-12-06T00:57:31.806Z,73.00
2017-12-06T01:02:38.597Z,72.90
2017-12-06T01:05:07.751Z,72.90
2017-12-06T01:07:35.825Z,72.90
2017-12-06T01:10:13.379Z,72.90
2017-12-06T01:15:19.822Z,72.80
2017-12-06T01:20:31.765Z,72.70
2017-12-06T01:22:59.404Z,72.70
2017-12-06T01:28:05.404Z,72.70
2017-12-06T01:38:31.271Z,72.70
2017-12-06T01:43:37.826Z,72.70
2017-12-06T01:46:07.744Z,72.70
2017-12-06T01:51:14.943Z,72.60
2017-12-06T01:56:25.857Z,72.60
2017-12-06T02:01:31.830Z,72.50
2017-12-06T02:04:01.934Z,72.50
2017-12-06T02:06:37.315Z,72.50
2017-12-06T02:09:04.626Z,72.50
2017-12-06T02:11:37.795Z,72.50
2017-12-06T02:14:07.731Z,72.50
2017-12-06T02:19:13.970Z,72.40
2017-12-06T02:21:43.795Z,72.40
2017-12-06T02:24:10.658Z,72.40
2017-12-06T02:26:37.946Z,72.40
2017-12-06T02:29:05.624Z,72.50
2017-12-06T02:31:43.392Z,72.40
2017-12-06T02:34:16.800Z,72.40
2017-12-06T02:36:44.101Z,72.40
2017-12-06T02:39:11.312Z,72.40
2017-12-06T02:41:38.603Z,72.30
2017-12-06T02:44:05.871Z,72.40
2017-12-06T02:46:32.764Z,72.30
2017-12-06T02:48:59.620Z,72.50
2017-12-06T02:51:31.728Z,72.40
2017-12-06T02:56:43.922Z,72.30
2017-12-06T02:59:11.548Z,72.30
2017-12-06T03:01:39.003Z,72.30
2017-12-06T03:04:07.821Z,72.30
2017-12-06T03:06:35.511Z,72.30
2017-12-06T03:09:02.783Z,72.20
2017-12-06T03:11:31.908Z,72.30
2017-12-06T03:16:43.775Z,72.20
2017-12-06T03:19:13.874Z,72.20
2017-12-06T03:21:41.131Z,72.10
2017-12-06T03:24:07.988Z,72.20
2017-12-06T03:26:43.336Z,72.30
2017-12-06T03:31:50.431Z,72.20
2017-12-06T03:34:18.487Z,72.20
2017-12-06T03:36:47.014Z,72.10
2017-12-06T03:39:25.384Z,72.20
2017-12-06T03:41:52.316Z,72.20
2017-12-06T03:44:19.235Z,72.20
2017-12-06T03:46:46.245Z,72.30
2017-12-06T03:52:01.300Z,72.20
2017-12-06T03:54:31.909Z,72.10
2017-12-06T03:57:01.827Z,72.10
2017-12-06T03:59:29.527Z,72.10
2017-12-06T04:02:01.867Z,72.10
2017-12-06T04:07:08.462Z,72.10
2017-12-06T04:09:35.713Z,72.20
2017-12-06T04:12:03.042Z,72.20
2017-12-06T04:14:30.020Z,72.20
2017-12-06T04:16:56.870Z,72.10
2017-12-06T04:19:31.367Z,72.20
2017-12-06T04:24:49.671Z,72.10
2017-12-06T04:27:16.979Z,72.10
2017-12-06T04:29:44.433Z,72.10
2017-12-06T04:32:11.275Z,72.10
2017-12-06T04:34:38.449Z,72.10
2017-12-06T04:37:05.774Z,72.10
2017-12-06T04:42:13.791Z,72.10
2017-12-06T04:44:43.996Z,72.10
2017-12-06T04:47:11.604Z,72.10
2017-12-06T04:49:38.474Z,72.20
2017-12-06T04:52:05.335Z,72.20
2017-12-06T04:54:37.804Z,72.20
2017-12-06T04:59:43.802Z,72.20
2017-12-06T05:07:29.509Z,72.20
2017-12-06T05:12:25.876Z,72.10
2017-12-06T05:14:55.990Z,72.20
2017-12-06T05:28:01.819Z,72.10
2017-12-06T05:30:28.720Z,72.20
2017-12-06T05:32:56.104Z,72.20
2017-12-06T05:35:23.357Z,72.20
2017-12-06T05:37:51.857Z,72.20
2017-12-06T05:42:58.227Z,72.20
2017-12-06T05:45:25.876Z,72.20
2017-12-06T05:47:53.540Z,72.10
2017-12-06T05:52:59.333Z,72.20
2017-12-06T05:55:31.865Z,72.20
2017-12-06T05:57:59.554Z,72.30
2017-12-06T06:00:37.340Z,72.20
2017-12-06T06:05:49.555Z,72.20
2017-12-06T06:08:16.811Z,72.20
2017-12-06T06:10:43.842Z,72.20
2017-12-06T06:13:14.060Z,72.20
2017-12-06T06:18:20.396Z,72.10
2017-12-06T06:28:50.267Z,72.20
2017-12-06T06:31:17.148Z,72.20
2017-12-06T06:33:55.419Z,72.20
2017-12-06T06:36:22.279Z,72.20
2017-12-06T06:39:01.335Z,72.10
2017-12-06T06:41:28.740Z,72.10
2017-12-06T06:43:55.659Z,72.20
2017-12-06T06:46:23.076Z,72.20
2017-12-06T06:48:50.080Z,72.20
2017-12-06T06:56:37.995Z,72.20
2017-12-06T07:01:55.358Z,72.10
2017-12-06T07:04:22.680Z,72.20
2017-12-06T07:06:50.072Z,72.30
2017-12-06T07:09:17.390Z,72.30
2017-12-06T07:11:55.606Z,72.30
2017-12-06T07:14:31.499Z,72.20
2017-12-06T07:16:58.415Z,72.20
2017-12-06T07:19:25.695Z,72.30
2017-12-06T07:21:55.993Z,72.30
2017-12-06T07:26:56.000Z,72.30
2017-12-06T07:29:24.072Z,72.30
2017-12-06T07:31:51.357Z,72.20
2017-12-06T07:34:18.979Z,72.30
2017-12-06T07:36:46.239Z,72.30
2017-12-06T07:39:13.090Z,72.30
2017-12-06T07:44:19.534Z,72.30
2017-12-06T07:49:31.521Z,72.30
2017-12-06T07:51:58.821Z,72.30
2017-12-06T07:54:25.687Z,72.30
2017-12-06T07:56:52.548Z,72.30
2017-12-06T07:59:21.029Z,72.30
2017-12-06T08:01:49.962Z,72.30
2017-12-06T08:06:56.870Z,72.30
2017-12-06T08:09:23.712Z,72.30
2017-12-06T08:11:50.593Z,72.30
2017-12-06T08:14:20.056Z,72.30
2017-12-06T08:16:46.948Z,72.30
2017-12-06T08:19:13.988Z,72.30
2017-12-06T08:21:49.699Z,72.40
2017-12-06T08:24:16.633Z,72.40
2017-12-06T08:26:43.986Z,72.40
2017-12-06T08:31:52.143Z,72.50
2017-12-06T08:34:19.118Z,72.50
2017-12-06T08:36:45.986Z,72.50
2017-12-06T08:39:19.500Z,72.50
2017-12-06T08:41:47.067Z,72.50
2017-12-06T08:44:13.919Z,72.40
2017-12-06T08:46:40.762Z,72.40
2017-12-06T08:49:07.991Z,72.40
2017-12-06T08:51:36.076Z,72.40
2017-12-06T08:54:08.060Z,72.30
2017-12-06T08:56:43.582Z,72.30
2017-12-06T08:59:10.532Z,72.30
2017-12-06T09:04:17.760Z,72.40
2017-12-06T09:06:44.599Z,72.40
2017-12-06T09:09:12.221Z,72.30
2017-12-06T09:19:37.098Z,72.30
2017-12-06T09:22:04.334Z,72.10
2017-12-06T09:24:31.203Z,72.20
2017-12-06T09:26:58.044Z,72.10
2017-12-06T09:29:25.687Z,72.20
2017-12-06T09:31:56.002Z,72.20
2017-12-06T09:37:13.528Z,72.20
2017-12-06T09:39:40.939Z,72.20
2017-12-06T09:42:14.061Z,72.20
2017-12-06T09:44:41.328Z,72.10
2017-12-06T09:47:08.602Z,72.00
2017-12-06T09:49:36.242Z,72.00
2017-12-06T09:54:42.003Z,72.10
2017-12-06T09:57:13.951Z,72.10
2017-12-06T09:59:40.832Z,72.10
2017-12-06T10:02:08.890Z,72.00
2017-12-06T10:04:36.129Z,72.10
2017-12-06T10:07:03.410Z,72.10
2017-12-06T10:09:32.056Z,72.00
2017-12-06T10:11:58.918Z,72.00
2017-12-06T10:14:26.225Z,72.10
2017-12-06T10:16:56.082Z,72.10
2017-12-06T10:19:23.756Z,72.00
2017-12-06T10:24:32.157Z,72.10
2017-12-06T10:27:02.077Z,72.10
2017-12-06T10:32:09.085Z,72.10
2017-12-06T10:34:36.761Z,72.00
2017-12-06T10:37:08.096Z,72.10
2017-12-06T10:42:14.310Z,72.10
2017-12-06T10:44:44.011Z,72.10
2017-12-06T10:50:01.506Z,72.10
2017-12-06T10:52:29.122Z,71.90
2017-12-06T10:57:37.776Z,72.10
2017-12-06T11:00:04.738Z,72.00
2017-12-06T11:02:43.597Z,71.90
2017-12-06T11:05:10.893Z,71.90
2017-12-06T11:10:19.936Z,71.90
2017-12-06T11:12:47.290Z,71.90
2017-12-06T11:15:14.671Z,72.00
2017-12-06T11:17:49.892Z,71.90
2017-12-06T11:20:20.077Z,71.90
2017-12-06T11:22:55.797Z,71.90
2017-12-06T11:28:03.484Z,71.80
2017-12-06T11:30:30.348Z,71.90
2017-12-06T11:35:37.361Z,71.90
2017-12-06T11:38:05.384Z,71.90
2017-12-06T11:40:33.454Z,71.90
2017-12-06T11:50:56.051Z,71.90
2017-12-06T11:53:22.949Z,71.90
2017-12-06T11:55:50.756Z,71.80
2017-12-06T11:58:20.055Z,71.80
2017-12-06T12:00:46.922Z,71.80
2017-12-06T12:03:20.094Z,71.80
2017-12-06T12:05:47.743Z,71.80
2017-12-06T12:08:15.004Z,71.80
2017-12-06T12:10:42.291Z,71.80
2017-12-06T12:15:50.216Z,71.80
2017-12-06T12:18:17.949Z,71.80
2017-12-06T12:20:45.583Z,71.80
2017-12-06T12:23:14.060Z,71.80
2017-12-06T12:28:19.543Z,71.80
2017-12-06T12:30:46.474Z,71.80
2017-12-06T12:35:52.298Z,71.80
2017-12-06T12:38:25.584Z,71.80
2017-12-06T12:40:52.876Z,71.80
2017-12-06T12:43:20.126Z,71.80
2017-12-06T12:45:47.852Z,71.90
2017-12-06T12:48:15.121Z,71.90
2017-12-06T12:50:44.147Z,71.90
2017-12-06T12:53:19.498Z,71.90
2017-12-06T12:55:47.138Z,71.90
2017-12-06T12:58:14.157Z,71.90
2017-12-06T13:00:40.987Z,72.10
2017-12-06T13:03:08.394Z,72.10
2017-12-06T13:05:35.691Z,72.00
2017-12-06T13:08:13.663Z,72.00
2017-12-06T13:10:40.972Z,72.00
2017-12-06T13:15:47.638Z,72.00
2017-12-06T13:20:54.845Z,72.10
2017-12-06T13:23:21.851Z,72.10
2017-12-06T13:25:50.119Z,72.10
2017-12-06T13:30:56.070Z,72.10
2017-12-06T13:33:31.623Z,72.30
2017-12-06T13:35:58.588Z,72.30
2017-12-06T13:38:25.871Z,72.30
2017-12-06T13:40:53.116Z,72.30
2017-12-06T13:43:26.058Z,72.30
2017-12-06T13:51:13.280Z,72.30
2017-12-06T13:53:40.666Z,72.30
2017-12-06T13:56:08.314Z,72.30
2017-12-06T13:58:35.157Z,72.30
2017-12-06T14:11:29.759Z,72.30
2017-12-06T14:13:57.006Z,72.40
2017-12-06T14:19:03.473Z,72.40
2017-12-06T14:21:31.001Z,72.40
2017-12-06T14:26:38.254Z,72.50
2017-12-06T14:29:08.127Z,72.50
2017-12-06T14:31:36.176Z,72.50
2017-12-06T14:34:04.710Z,72.50
2017-12-06T14:36:31.982Z,72.50
2017-12-06T14:39:07.664Z,72.50
2017-12-06T14:46:54.345Z,72.50
2017-12-06T14:49:21.611Z,72.50
2017-12-06T14:51:50.492Z,72.50
2017-12-06T14:54:17.733Z,72.50
2017-12-06T15:04:42.554Z,72.60
2017-12-06T15:07:14.100Z,72.60
2017-12-06T15:09:41.762Z,72.60
2017-12-06T15:12:08.634Z,72.60
2017-12-06T15:17:15.429Z,72.60
2017-12-06T15:19:50.520Z,72.70
2017-12-06T15:24:57.415Z,72.70
2017-12-06T15:30:03.201Z,72.70
2017-12-06T15:32:31.235Z,72.70
2017-12-06T15:34:58.907Z,72.70
2017-12-06T15:42:44.254Z,72.70
2017-12-06T15:47:51.403Z,72.70
2017-12-06T15:58:15.257Z,72.80
2017-12-06T16:00:44.132Z,72.80
2017-12-06T16:03:14.260Z,72.80
2017-12-06T16:08:22.823Z,72.80
2017-12-06T16:10:50.282Z,72.80
2017-12-06T16:13:17.909Z,72.80
2017-12-06T16:18:24.584Z,72.80
2017-12-06T16:23:30.785Z,72.90
2017-12-06T16:25:58.048Z,72.90
2017-12-06T16:28:31.855Z,72.90
2017-12-06T16:33:37.659Z,72.90
2017-12-06T16:36:04.607Z,72.90
2017-12-06T16:38:32.094Z,72.90
2017-12-06T16:40:59.353Z,72.90
2017-12-06T16:43:32.094Z,72.90
2017-12-06T16:48:39.157Z,72.90
2017-12-06T16:51:06.816Z,72.90
2017-12-06T16:53:38.119Z,72.90
2017-12-06T16:58:44.952Z,72.90
2017-12-06T17:01:12.192Z,72.90
2017-12-06T17:03:39.465Z,73.00
2017-12-06T17:06:06.332Z,73.00
2017-12-06T17:11:02.079Z,73.00
2017-12-06T17:13:28.976Z,73.00
2017-12-06T17:15:55.879Z,73.00
2017-12-06T17:18:23.137Z,73.00
2017-12-06T17:20:50.258Z,73.00
2017-12-06T17:23:18.246Z,73.10
2017-12-06T17:25:45.095Z,73.10
2017-12-06T17:28:12.352Z,73.10
2017-12-06T17:30:39.660Z,73.10
2017-12-06T17:33:06.950Z,73.20
2017-12-06T17:35:38.232Z,73.20
2017-12-06T17:38:05.939Z,73.20
2017-12-06T17:40:33.167Z,73.20
2017-12-06T17:43:00.822Z,73.20
2017-12-06T17:45:27.675Z,73.20
2017-12-06T17:47:55.003Z,73.10
2017-12-06T17:50:21.884Z,73.20
2017-12-06T17:52:55.711Z,73.20
2017-12-06T17:55:22.663Z,73.20
2017-12-06T17:57:50.736Z,73.20
2017-12-06T18:00:17.628Z,73.20
2017-12-06T18:05:22.911Z,73.30
2017-12-06T18:07:50.798Z,73.40
2017-12-06T18:10:20.299Z,73.40
2017-12-06T18:12:47.539Z,73.40
2017-12-06T18:15:14.859Z,73.30
2017-12-06T18:17:41.729Z,73.30
2017-12-06T18:25:27.544Z,73.30
2017-12-06T18:27:56.135Z,73.30
2017-12-06T18:30:23.420Z,73.30
2017-12-06T18:32:50.674Z,73.30
2017-12-06T18:35:17.601Z,73.30
2017-12-06T18:37:44.838Z,73.30
2017-12-06T18:40:12.088Z,73.30
2017-12-06T18:45:20.207Z,73.30
2017-12-06T18:47:47.468Z,73.30
2017-12-06T18:50:14.415Z,73.30
2017-12-06T18:52:41.644Z,73.40
2017-12-06T18:55:08.967Z,73.30
2017-12-06T18:57:43.854Z,73.30
2017-12-06T19:00:14.522Z,73.30
2017-12-06T19:05:21.727Z,73.40
2017-12-06T19:07:48.607Z,73.40
2017-12-06T19:10:15.565Z,73.40
2017-12-06T19:12:42.478Z,73.40
2017-12-06T19:15:09.358Z,73.40
2017-12-06T19:17:36.290Z,73.30
2017-12-06T19:20:03.177Z,73.30
2017-12-06T19:22:32.220Z,73.40
2017-12-06T19:25:00.377Z,73.40
2017-12-06T19:27:27.999Z,73.30
2017-12-06T19:29:54.843Z,73.30
2017-12-06T19:32:22.106Z,73.30
2017-12-06T19:34:48.980Z,73.40
2017-12-06T19:37:16.220Z,73.30
2017-12-06T19:39:43.075Z,73.30
2017-12-06T19:44:38.559Z,73.30
2017-12-06T19:47:05.463Z,73.30
2017-12-06T19:49:32.745Z,73.30
2017-12-06T19:52:00.052Z,73.30
2017-12-06T19:54:27.694Z,73.30
2017-12-06T19:56:55.428Z,73.40
2017-12-06T19:59:22.741Z,73.40
2017-12-06T20:01:50.500Z,73.40
2017-12-06T20:04:17.768Z,73.40
2017-12-06T20:06:45.762Z,73.40
2017-12-06T20:09:19.753Z,73.40
2017-12-06T20:11:50.251Z,73.40
2017-12-06T20:14:20.318Z,73.40
2017-12-06T20:19:26.711Z,73.40
2017-12-06T20:21:53.999Z,73.40
2017-12-06T20:24:20.841Z,73.40
2017-12-06T20:26:50.374Z,73.40
2017-12-06T20:31:57.450Z,73.40
2017-12-06T20:34:26.258Z,73.50
2017-12-06T20:36:56.270Z,73.50
2017-12-06T20:39:23.907Z,73.40
2017-12-06T20:41:50.776Z,73.40
2017-12-06T20:49:36.851Z,73.40
2017-12-06T20:52:04.586Z,73.40
2017-12-06T20:54:32.399Z,73.40
2017-12-06T21:02:25.813Z,73.30
2017-12-06T21:07:32.084Z,73.30
2017-12-06T21:09:59.724Z,73.30
2017-12-06T21:12:26.599Z,73.30
2017-12-06T21:22:42.161Z,73.30
2017-12-06T21:33:06.151Z,73.30
2017-12-06T21:35:33.390Z,73.20
2017-12-06T21:38:01.013Z,73.30
2017-12-06T21:40:27.962Z,73.20
2017-12-06T21:42:55.570Z,73.20
2017-12-06T21:45:26.251Z,73.20
2017-12-06T21:47:53.130Z,73.10
2017-12-06T21:52:59.284Z,73.10
2017-12-06T22:00:34.235Z,73.10
2017-12-06T22:03:01.077Z,73.00
2017-12-06T22:05:27.919Z,73.00
2017-12-06T22:07:56.398Z,73.00
2017-12-06T22:10:23.271Z,73.00
2017-12-06T22:15:30.508Z,72.90
2017-12-06T22:25:55.543Z,72.80
2017-12-06T22:28:23.227Z,72.80
2017-12-06T22:30:50.572Z,72.80
2017-12-06T22:33:17.828Z,72.70
2017-12-06T22:35:45.079Z,72.70
2017-12-06T22:38:12.709Z,72.60
2017-12-06T22:40:39.626Z,72.70
2017-12-06T22:45:45.856Z,72.50
2017-12-06T22:48:19.822Z,72.50
2017-12-06T22:50:46.740Z,72.50
2017-12-06T22:53:13.581Z,72.40
2017-12-06T22:55:40.429Z,72.30
2017-12-06T22:58:07.744Z,72.40
2017-12-06T23:00:35.024Z,72.30
2017-12-06T23:03:03.007Z,72.30
2017-12-06T23:05:30.363Z,72.00
2017-12-06T23:07:57.267Z,72.00
2017-12-06T23:10:24.171Z,71.90
2017-12-06T23:12:51.915Z,71.90
2017-12-06T23:15:20.434Z,71.90
2017-12-06T23:17:47.844Z,71.80
2017-12-06T23:20:14.745Z,71.70
2017-12-06T23:22:44.425Z,71.80
2017-12-06T23:25:11.685Z,71.70
2017-12-06T23:27:38.549Z,71.70
2017-12-06T23:30:05.397Z,71.70
2017-12-06T23:32:38.341Z,71.60
2017-12-06T23:35:05.962Z,71.50
2017-12-06T23:37:43.808Z,71.50
2017-12-06T23:40:11.036Z,71.50
2017-12-06T23:42:37.981Z,71.40
2017-12-06T23:45:05.237Z,71.40
2017-12-06T23:47:32.497Z,71.30
2017-12-06T23:52:28.420Z,71.20
2017-12-06T23:54:56.534Z,71.20
2017-12-06T23:57:23.846Z,71.10
2017-12-06T23:59:50.874Z,71.10
